Time;durP1;ratioP1;P1;durP2;ratioP2;P2;SDS_P1;SDS_P2;PMS_P1;PMS_P2;Temp;Humidity;BMP_temperature;BMP_pressure;BME280_temperature;BME280_humidity;BME280_pressure;Samples;Min_cycle;Max_cycle;Signal;HPM_P1;HPM_P2
2022/01/02 00:02:12;;;;;;;158.48;36.88;;;3.30;99.90;;;;;;4163526;28;20038;-57
2022/01/02 00:04:21;;;;;;;229.48;38.42;;;3.40;99.90;;;;;;4161825;28;20185;-57
2022/01/02 00:06:24;;;;;;;67.32;28.75;;;3.30;99.90;;;;;;4162721;28;20086;-57
2022/01/02 00:08:28;;;;;;;58.35;29.58;;;3.30;99.90;;;;;;4160424;28;20073;-57
2022/01/02 00:10:56;;;;;;;74.68;28.92;;;3.40;99.90;;;;;;4163397;28;20510;-57
2022/01/02 00:13:00;;;;;;;92.13;31.70;;;3.40;99.90;;;;;;4161617;28;20033;-57
2022/01/02 00:15:06;;;;;;;152.30;32.75;;;3.40;99.90;;;;;;4164165;28;20080;-56
2022/01/02 00:17:09;;;;;;;42.10;26.95;;;3.40;99.90;;;;;;4163281;28;20033;-57
2022/01/02 00:19:21;;;;;;;;;;;3.40;99.90;;;;;;4163369;28;20065;-57
2022/01/02 00:21:28;;;;;;;98.60;27.58;;;3.40;99.90;;;;;;4164216;28;19929;-56
2022/01/02 00:23:40;;;;;;;75.85;27.35;;;3.30;99.90;;;;;;4149033;28;20131;-56
2022/01/02 00:25:43;;;;;;;104.82;29.27;;;3.40;99.90;;;;;;4164331;28;20403;-57
2022/01/02 00:27:45;;;;;;;68.35;27.65;;;3.40;99.90;;;;;;4161135;28;20053;-57
2022/01/02 00:29:49;;;;;;;152.32;29.70;;;3.40;99.90;;;;;;4163767;28;20091;-57
2022/01/02 00:31:53;;;;;;;94.90;27.30;;;3.40;99.90;;;;;;4161847;28;20039;-56
2022/01/02 00:33:56;;;;;;;71.90;27.50;;;3.40;99.90;;;;;;4163594;28;20034;-57
2022/01/02 00:35:58;;;;;;;;;;;3.40;99.90;;;;;;4162236;28;20067;-56
2022/01/02 00:38:00;;;;;;;47.97;27.05;;;3.40;99.90;;;;;;4163055;28;19979;-57
2022/01/02 00:40:03;;;;;;;54.38;31.27;;;3.40;99.90;;;;;;4160766;28;20037;-57
2022/01/02 00:42:08;;;;;;;26.75;24.25;;;3.40;99.90;;;;;;4171721;28;20092;-56
2022/01/02 00:44:20;;;;;;;27.52;25.65;;;3.30;99.90;;;;;;4168705;28;20042;-57
2022/01/02 00:46:23;;;;;;;27.23;25.08;;;3.30;99.90;;;;;;4164122;28;20543;-56
2022/01/02 00:48:29;;;;;;;25.50;24.00;;;3.30;99.90;;;;;;4161328;28;20041;-57
2022/01/02 00:50:36;;;;;;;24.10;21.92;;;3.30;99.90;;;;;;4162711;28;20098;-57
2022/01/02 00:52:41;;;;;;;53.33;25.65;;;3.30;99.90;;;;;;4158447;28;20034;-56
2022/01/02 00:54:45;;;;;;;134.55;29.60;;;3.30;99.90;;;;;;4163581;28;20084;-56
2022/01/02 00:56:50;;;;;;;39.53;24.15;;;3.30;99.90;;;;;;4160917;28;20037;-56
2022/01/02 00:58:56;;;;;;;91.57;27.77;;;3.30;99.90;;;;;;4163653;28;20038;-57
2022/01/02 01:01:01;;;;;;;32.88;24.20;;;3.30;99.90;;;;;;4160885;28;20061;-57
2022/01/02 01:03:09;;;;;;;25.42;23.45;;;3.30;99.90;;;;;;4149927;28;20477;-57
2022/01/02 01:05:17;;;;;;;25.35;23.65;;;3.30;99.90;;;;;;4162274;28;20067;-56
2022/01/02 01:07:20;;;;;;;128.18;32.30;;;3.30;99.90;;;;;;4160084;28;20029;-57
2022/01/02 01:09:22;;;;;;;;;;;3.30;99.90;;;;;;4159233;28;20083;-57
2022/01/02 01:11:26;;;;;;;222.40;35.45;;;3.30;99.90;;;;;;4180150;28;20471;-56
2022/01/02 01:13:28;;;;;;;27.10;25.08;;;3.30;99.90;;;;;;4160964;28;20061;-56
2022/01/02 01:15:36;;;;;;;29.00;27.80;;;3.20;99.90;;;;;;4163295;28;20045;-56
2022/01/02 01:17:38;;;;;;;30.67;26.50;;;3.20;99.90;;;;;;4160941;28;20072;-57
2022/01/02 01:19:41;;;;;;;31.40;28.10;;;3.20;99.90;;;;;;4162561;28;20052;-57
2022/01/02 01:21:44;;;;;;;103.43;32.25;;;3.20;99.90;;;;;;4162206;28;20103;-57
2022/01/02 01:23:45;;;;;;;36.78;28.50;;;3.20;99.90;;;;;;4160612;28;20153;-57
2022/01/02 01:25:51;;;;;;;25.98;24.33;;;3.20;99.90;;;;;;4161498;28;20041;-57
2022/01/02 01:27:53;;;;;;;27.45;26.13;;;3.20;99.90;;;;;;4161704;28;20115;-57
2022/01/02 01:29:55;;;;;;;28.70;27.38;;;3.20;99.90;;;;;;4165207;28;20045;-57
2022/01/02 01:31:57;;;;;;;29.58;27.88;;;3.20;99.90;;;;;;4171334;28;20034;-57
2022/01/02 01:33:59;;;;;;;25.95;25.05;;;3.20;99.90;;;;;;4163642;28;20132;-57
2022/01/02 01:36:02;;;;;;;27.10;25.95;;;3.20;99.90;;;;;;4159962;28;20214;-57
2022/01/02 01:38:04;;;;;;;25.40;24.20;;;3.20;99.90;;;;;;4160856;28;20576;-57
2022/01/02 01:40:11;;;;;;;24.95;23.88;;;3.20;99.90;;;;;;4161445;28;20041;-56
2022/01/02 01:42:13;;;;;;;25.92;24.85;;;3.20;99.90;;;;;;4160818;28;20054;-56
2022/01/02 01:46:20;;;;;;;24.70;23.60;;;3.20;99.90;;;;;;4162914;28;20058;-56
2022/01/02 01:48:22;;;;;;;24.98;23.90;;;3.20;99.90;;;;;;4160994;28;20050;-56
2022/01/02 01:50:28;;;;;;;24.67;23.42;;;3.20;99.90;;;;;;4163005;28;20077;-57
2022/01/02 01:52:30;;;;;;;22.10;21.27;;;3.20;99.90;;;;;;4160650;28;20030;-57
2022/01/02 01:54:32;;;;;;;19.65;19.05;;;3.20;99.90;;;;;;4161808;28;20045;-56
2022/01/02 01:56:35;;;;;;;18.70;18.33;;;3.20;99.90;;;;;;4159681;28;20041;-56
2022/01/02 01:58:37;;;;;;;19.23;18.63;;;3.20;99.90;;;;;;4160761;28;20072;-57
2022/01/02 02:00:39;;;;;;;19.15;18.55;;;3.20;99.90;;;;;;4160002;28;20041;-57
2022/01/02 02:02:42;;;;;;;15.07;14.80;;;3.30;99.90;;;;;;4170144;28;20108;-58
2022/01/02 02:04:45;;;;;;;16.10;15.60;;;3.30;99.90;;;;;;4165873;28;20055;-57
2022/01/02 02:06:47;;;;;;;17.20;16.80;;;3.30;99.90;;;;;;4162152;28;20486;-57
2022/01/02 02:08:52;;;;;;;16.73;16.23;;;3.30;99.90;;;;;;4158589;28;20095;-57
2022/01/02 02:10:56;;;;;;;14.07;13.77;;;3.30;99.90;;;;;;4162055;28;20052;-58
2022/01/02 02:13:01;;;;;;;16.73;16.08;;;3.30;99.90;;;;;;4159072;28;20474;-57
2022/01/02 02:15:04;;;;;;;18.60;17.80;;;3.30;99.90;;;;;;4161281;28;20155;-57
2022/01/02 02:17:06;;;;;;;17.48;16.77;;;3.30;99.90;;;;;;4158054;28;20116;-57
2022/01/02 02:19:08;;;;;;;18.67;17.88;;;3.30;99.90;;;;;;4161191;28;20065;-57
2022/01/02 02:21:10;;;;;;;17.02;16.08;;;3.30;99.90;;;;;;4158256;28;20077;-57
2022/01/02 02:23:13;;;;;;;18.40;17.85;;;3.30;99.90;;;;;;4162834;28;20033;-58
2022/01/02 02:25:19;;;;;;;18.73;18.17;;;3.30;99.90;;;;;;4160113;28;20037;-57
2022/01/02 02:27:24;;;;;;;16.52;15.85;;;3.30;99.90;;;;;;4161640;28;20379;-57
2022/01/02 02:29:26;;;;;;;19.23;18.52;;;3.30;99.90;;;;;;4158580;28;20045;-57
2022/01/02 02:31:28;;;;;;;17.77;17.17;;;3.30;99.90;;;;;;4162839;28;20049;-57
2022/01/02 02:33:31;;;;;;;18.15;17.63;;;3.30;99.90;;;;;;4158509;28;20378;-57
2022/01/02 02:35:34;;;;;;;14.18;13.98;;;3.30;99.90;;;;;;4162746;28;20033;-57
2022/01/02 02:37:42;;;;;;;17.70;16.95;;;3.40;99.90;;;;;;4159554;28;20067;-57
2022/01/02 02:39:44;;;;;;;17.98;17.30;;;3.30;99.90;;;;;;4161915;28;20053;-58
2022/01/02 02:41:46;;;;;;;20.40;19.27;;;3.30;99.90;;;;;;4158830;28;20045;-57
2022/01/02 02:44:00;;;;;;;22.88;21.95;;;3.30;99.90;;;;;;4164870;28;20505;-57
2022/01/02 02:50:47;;;;;;;20.20;19.35;;;3.30;99.90;;;;;;4161323;28;20065;-57
2022/01/02 02:52:49;;;;;;;21.27;20.58;;;3.30;99.90;;;;;;4160229;28;20064;-58
2022/01/02 02:54:55;;;;;;;23.52;22.58;;;3.30;99.90;;;;;;4162214;28;20041;-57
2022/01/02 02:56:59;;;;;;;25.17;24.23;;;3.30;99.90;;;;;;4158936;28;20037;-57
2022/01/02 02:59:05;;;;;;;22.60;21.85;;;3.30;99.90;;;;;;4167173;28;20039;-57
2022/01/02 03:01:09;;;;;;;21.45;20.23;;;3.30;99.90;;;;;;4168893;28;20037;-57
2022/01/02 03:03:11;;;;;;;18.20;17.70;;;3.30;99.90;;;;;;4162195;28;20128;-57
2022/01/02 03:05:13;;;;;;;16.80;16.17;;;3.40;99.90;;;;;;4159248;28;20469;-57
2022/01/02 03:07:15;;;;;;;18.27;17.45;;;3.40;99.90;;;;;;4161696;28;20060;-57
2022/01/02 03:11:33;;;;;;;18.55;18.00;;;3.30;99.90;;;;;;4159196;28;20080;-58
2022/01/02 03:13:35;;;;;;;;;;;3.30;99.90;;;;;;4161100;28;20041;-58
2022/01/02 03:15:37;;;;;;;16.17;15.68;;;3.30;99.90;;;;;;4150582;28;19980;-57
2022/01/02 03:17:39;;;;;;;17.02;16.38;;;3.30;99.90;;;;;;4151840;28;20401;-57
2022/01/02 03:19:42;;;;;;;16.48;15.70;;;3.40;99.90;;;;;;4160438;28;20073;-58
2022/01/02 03:21:44;;;;;;;14.93;14.30;;;3.40;99.90;;;;;;4162697;28;20037;-58
2022/01/02 03:23:46;;;;;;;14.18;13.80;;;3.40;99.90;;;;;;4158547;28;20053;-58
2022/01/02 03:25:48;;;;;;;13.80;13.18;;;3.40;99.90;;;;;;4162300;28;20502;-58
2022/01/02 03:27:50;;;;;;;16.17;15.35;;;3.40;99.90;;;;;;4164843;28;20096;-57
2022/01/02 03:29:52;;;;;;;18.42;17.73;;;3.40;99.90;;;;;;4161780;28;20040;-57
2022/01/02 03:31:54;;;;;;;21.05;17.45;;;3.40;99.90;;;;;;4164601;28;20045;-57
2022/01/02 03:33:57;;;;;;;48.95;19.75;;;3.40;99.90;;;;;;4161915;28;20088;-58
2022/01/02 03:35:59;;;;;;;28.05;19.58;;;3.40;99.90;;;;;;4163001;28;20069;-57
2022/01/02 03:38:02;;;;;;;19.83;18.13;;;3.40;99.90;;;;;;4156597;28;20064;-56
2022/01/02 03:40:07;;;;;;;147.38;20.58;;;3.40;99.90;;;;;;4164350;28;20551;-58
2022/01/02 03:42:09;;;;;;;58.63;18.60;;;3.40;99.90;;;;;;4163633;28;20044;-57
2022/01/02 03:44:11;;;;;;;19.15;16.83;;;3.40;99.90;;;;;;4163699;28;20045;-57
2022/01/02 03:46:14;;;;;;;119.80;18.05;;;3.40;99.90;;;;;;4161902;28;20124;-58
2022/01/02 03:48:16;;;;;;;10.90;10.60;;;3.40;99.90;;;;;;4165410;28;20081;-58
2022/01/02 03:50:19;;;;;;;136.80;16.95;;;3.40;99.90;;;;;;4161938;28;20382;-57
2022/01/02 03:52:21;;;;;;;190.40;16.42;;;3.40;99.90;;;;;;4163401;28;20080;-57
2022/01/02 03:54:23;;;;;;;31.60;11.65;;;3.50;99.90;;;;;;4163645;28;20121;-57
2022/01/02 03:56:25;;;;;;;57.60;13.43;;;3.40;99.90;;;;;;4159418;28;20132;-57
2022/01/02 03:58:27;;;;;;;88.95;14.95;;;3.40;99.90;;;;;;4161527;28;20484;-57
2022/01/02 04:00:29;;;;;;;18.73;14.73;;;3.40;99.90;;;;;;4149512;28;20046;-57
2022/01/02 04:02:31;;;;;;;44.20;16.48;;;3.40;99.90;;;;;;4159199;28;20049;-57
2022/01/02 04:04:33;;;;;;;15.93;13.35;;;3.50;99.90;;;;;;4178976;28;20049;-57
2022/01/02 04:06:35;;;;;;;12.43;10.65;;;3.50;99.90;;;;;;4161914;28;20037;-57
2022/01/02 04:08:37;;;;;;;18.88;12.23;;;3.50;99.90;;;;;;4163173;28;20505;-57
2022/01/02 04:10:40;;;;;;;13.10;12.10;;;3.50;99.90;;;;;;4159998;28;20120;-57
2022/01/02 04:12:45;;;;;;;13.30;11.98;;;3.50;99.90;;;;;;4164193;28;20042;-58
2022/01/02 04:14:47;;;;;;;10.73;10.23;;;3.50;99.90;;;;;;4160964;28;20042;-58
2022/01/02 04:16:49;;;;;;;10.50;10.10;;;3.50;99.90;;;;;;4162940;28;20045;-58
2022/01/02 04:18:51;;;;;;;10.93;10.35;;;3.60;99.90;;;;;;4160570;28;20042;-57
2022/01/02 04:20:54;;;;;;;43.22;11.02;;;3.60;99.90;;;;;;4164201;28;20548;-56
2022/01/02 04:22:56;;;;;;;24.85;11.23;;;3.60;99.90;;;;;;4161728;28;20828;-58
2022/01/02 04:24:58;;;;;;;13.38;11.98;;;3.50;99.90;;;;;;4163910;28;20049;-58
2022/01/02 04:27:00;;;;;;;11.20;10.80;;;3.60;99.90;;;;;;4161388;28;20050;-57
2022/01/02 04:29:03;;;;;;;11.50;10.82;;;3.60;99.90;;;;;;4163831;28;20042;-57
2022/01/02 04:31:05;;;;;;;80.00;14.63;;;3.60;99.90;;;;;;4161715;28;20603;-57
2022/01/02 04:33:07;;;;;;;393.38;30.45;;;3.70;99.90;;;;;;4162787;28;20056;-57
2022/01/02 04:35:10;;;;;;;64.00;13.55;;;3.60;99.90;;;;;;4162934;28;20490;-57
2022/01/02 04:37:12;;;;;;;281.92;23.60;;;3.60;99.90;;;;;;4173789;28;20037;-57
2022/01/02 04:39:14;;;;;;;81.45;17.13;;;3.60;99.90;;;;;;4161760;28;20733;-57
2022/01/02 04:41:17;;;;;;;118.05;18.55;;;3.60;99.90;;;;;;4160049;28;20517;-56
2022/01/02 04:43:19;;;;;;;181.35;21.77;;;3.60;99.90;;;;;;4161410;28;20041;-57
2022/01/02 04:45:21;;;;;;;400.67;29.05;;;3.60;99.90;;;;;;4165215;28;20058;-57
2022/01/02 04:47:23;;;;;;;174.57;21.42;;;3.60;99.90;;;;;;4161614;28;20521;-57
2022/01/02 04:49:25;;;;;;;94.22;18.08;;;3.60;99.90;;;;;;4163799;28;20809;-57
2022/01/02 04:51:28;;;;;;;94.45;16.67;;;3.60;99.90;;;;;;4160145;28;20041;-57
2022/01/02 04:53:30;;;;;;;87.70;15.52;;;3.60;99.90;;;;;;4162402;28;20038;-58
2022/01/02 04:55:32;;;;;;;39.10;13.48;;;3.60;99.90;;;;;;4162440;28;20037;-58
2022/01/02 04:57:34;;;;;;;71.70;17.55;;;3.60;99.90;;;;;;4160653;28;20152;-57
2022/01/02 04:59:38;;;;;;;25.48;13.90;;;3.60;99.90;;;;;;4162346;28;20042;-57
2022/01/02 05:01:40;;;;;;;13.10;12.48;;;3.70;99.90;;;;;;4159969;28;20050;-58
2022/01/02 05:03:43;;;;;;;150.23;18.83;;;3.70;99.90;;;;;;4160912;28;20045;-57
2022/01/02 05:05:45;;;;;;;18.27;12.68;;;3.60;99.90;;;;;;4161630;28;20046;-57
2022/01/02 05:07:47;;;;;;;40.78;12.82;;;3.70;99.90;;;;;;4161447;28;20045;-58
2022/01/02 05:09:49;;;;;;;143.52;16.73;;;3.70;99.90;;;;;;4161572;28;20533;-57
2022/01/02 05:11:52;;;;;;;12.02;11.13;;;3.70;99.90;;;;;;4158766;28;20514;-58
2022/01/02 05:13:54;;;;;;;277.98;21.63;;;3.70;99.90;;;;;;4153864;28;20050;-58
2022/01/02 05:15:56;;;;;;;15.98;13.40;;;3.60;99.90;;;;;;4157031;28;20135;-57
2022/01/02 05:17:58;;;;;;;109.43;14.18;;;3.70;99.90;;;;;;4147316;28;20038;-57
2022/01/02 05:20:01;;;;;;;47.40;12.45;;;3.70;99.90;;;;;;4163589;28;20136;-57
2022/01/02 05:22:03;;;;;;;13.20;11.98;;;3.70;99.90;;;;;;4160135;28;20852;-58
2022/01/02 05:24:05;;;;;;;12.27;11.57;;;3.70;99.90;;;;;;4162654;28;20441;-58
2022/01/02 05:26:07;;;;;;;12.88;12.07;;;3.70;99.90;;;;;;4161178;28;20042;-56
2022/01/02 05:28:10;;;;;;;14.23;13.02;;;3.70;99.90;;;;;;4162083;28;20037;-56
2022/01/02 05:30:12;;;;;;;12.43;11.82;;;3.70;99.90;;;;;;4161523;28;20079;-56
2022/01/02 05:32:14;;;;;;;11.60;11.07;;;3.70;99.90;;;;;;4162080;28;20041;-57
2022/01/02 05:34:16;;;;;;;13.80;12.75;;;3.80;99.90;;;;;;4160555;28;20034;-57
2022/01/02 05:36:18;;;;;;;16.42;14.68;;;3.80;99.90;;;;;;4163271;28;20373;-57
2022/01/02 05:38:21;;;;;;;13.30;12.63;;;3.70;99.90;;;;;;4160792;28;20091;-56
2022/01/02 05:40:23;;;;;;;13.43;12.52;;;3.70;99.90;;;;;;4162216;28;20041;-57
2022/01/02 05:42:25;;;;;;;11.32;10.70;;;3.70;99.90;;;;;;4161079;28;20120;-57
2022/01/02 05:44:27;;;;;;;13.90;12.63;;;3.80;99.90;;;;;;4161258;28;20106;-57
2022/01/02 05:46:29;;;;;;;12.43;11.70;;;3.80;99.90;;;;;;4161654;28;20041;-58
2022/01/02 05:48:32;;;;;;;12.82;11.77;;;3.80;99.90;;;;;;4154476;28;20042;-57
2022/01/02 05:50:34;;;;;;;11.98;11.05;;;3.80;99.90;;;;;;4150839;28;20065;-57
2022/01/02 05:52:36;;;;;;;10.55;10.05;;;3.80;99.90;;;;;;4163337;28;20073;-57
2022/01/02 05:54:38;;;;;;;11.98;10.80;;;3.80;99.90;;;;;;4156795;28;20042;-57
2022/01/02 05:56:40;;;;;;;10.65;9.90;;;3.80;99.90;;;;;;4160683;28;20494;-58
2022/01/02 05:58:42;;;;;;;11.18;10.52;;;3.80;99.90;;;;;;4159520;28;20524;-57
2022/01/02 06:00:44;;;;;;;11.13;10.63;;;3.70;99.90;;;;;;4162863;28;20156;-57
2022/01/02 06:02:46;;;;;;;12.95;12.23;;;3.80;99.90;;;;;;4159453;28;20079;-58
2022/01/02 06:04:49;;;;;;;11.25;10.88;;;3.80;99.90;;;;;;4162063;28;20061;-57
2022/01/02 06:06:51;;;;;;;9.80;9.35;;;3.70;99.90;;;;;;4158959;28;20092;-57
2022/01/02 06:08:53;;;;;;;10.02;9.55;;;3.80;99.90;;;;;;4162293;28;20077;-58
2022/01/02 06:10:55;;;;;;;10.80;10.18;;;3.80;99.90;;;;;;4157508;28;20081;-57
2022/01/02 06:12:57;;;;;;;11.20;10.43;;;3.80;99.90;;;;;;4162970;28;20091;-57
2022/01/02 06:14:59;;;;;;;12.18;11.35;;;3.80;99.90;;;;;;4159011;28;20033;-57
2022/01/02 06:17:01;;;;;;;12.93;11.88;;;3.80;99.90;;;;;;4160242;28;20052;-57
2022/01/02 06:19:04;;;;;;;9.93;9.55;;;3.90;99.90;;;;;;4157989;28;20717;-56
2022/01/02 06:21:06;;;;;;;10.68;10.23;;;3.90;99.90;;;;;;4162575;28;20037;-56
2022/01/02 06:23:08;;;;;;;11.27;10.23;;;3.90;99.90;;;;;;4158849;28;20042;-57
2022/01/02 06:25:10;;;;;;;13.88;12.85;;;3.90;99.90;;;;;;4162811;28;20065;-57
2022/01/02 06:27:12;;;;;;;14.50;13.38;;;3.80;99.90;;;;;;4156578;28;20073;-57
2022/01/02 06:29:14;;;;;;;15.63;15.13;;;3.80;99.90;;;;;;4162861;28;20038;-57
2022/01/02 06:31:16;;;;;;;12.65;12.38;;;3.80;99.90;;;;;;4160119;28;20120;-57
2022/01/02 06:33:22;;;;;;;13.07;12.32;;;3.80;99.90;;;;;;4161701;28;20100;-57
2022/01/02 06:35:27;;;;;;;12.25;11.70;;;3.80;99.90;;;;;;4158456;28;20513;-57
2022/01/02 06:37:29;;;;;;;14.25;13.75;;;3.80;99.90;;;;;;4162065;28;20041;-57
2022/01/02 06:39:31;;;;;;;14.05;13.45;;;3.80;99.90;;;;;;4160116;28;20072;-57
2022/01/02 06:41:36;;;;;;;14.48;13.70;;;3.80;99.90;;;;;;4161824;28;20136;-57
2022/01/02 06:43:38;;;;;;;13.38;12.93;;;3.80;99.90;;;;;;4158370;28;20439;-58
2022/01/02 06:45:40;;;;;;;11.32;11.07;;;3.70;99.90;;;;;;4161989;28;20079;-58
2022/01/02 06:47:42;;;;;;;13.27;12.30;;;3.80;99.90;;;;;;4160054;28;20033;-57
2022/01/02 06:49:44;;;;;;;12.18;11.05;;;3.80;99.90;;;;;;4148362;28;20041;-58
2022/01/02 06:51:46;;;;;;;14.10;13.23;;;3.80;99.90;;;;;;4155589;28;20041;-57
2022/01/02 06:53:48;;;;;;;14.82;14.02;;;3.80;99.90;;;;;;4161696;28;20041;-57
2022/01/02 06:55:50;;;;;;;19.38;17.70;;;3.80;99.90;;;;;;4156932;28;20035;-57
2022/01/02 06:57:53;;;;;;;25.17;22.77;;;3.90;99.90;;;;;;4167627;28;20037;-57
2022/01/02 06:59:55;;;;;;;19.33;17.95;;;3.80;99.90;;;;;;4160767;28;20096;-57
2022/01/02 07:01:57;;;;;;;17.40;16.40;;;3.90;99.90;;;;;;4146311;28;20041;-57
2022/01/02 07:03:59;;;;;;;;;;;3.80;99.90;;;;;;4156975;28;20095;-57
2022/01/02 07:06:01;;;;;;;14.80;13.75;;;3.80;99.90;;;;;;4161509;28;19925;-57
2022/01/02 07:08:03;;;;;;;17.67;16.92;;;3.90;99.90;;;;;;4157945;28;20131;-57
2022/01/02 07:10:05;;;;;;;19.15;18.50;;;3.80;99.90;;;;;;4168630;28;20115;-57
2022/01/02 07:12:07;;;;;;;16.00;15.45;;;3.80;99.90;;;;;;4158102;28;20072;-57
2022/01/02 07:14:09;;;;;;;13.90;13.57;;;3.80;99.90;;;;;;4165148;28;20044;-58
2022/01/02 07:16:12;;;;;;;12.80;12.50;;;3.80;99.90;;;;;;4158702;28;20033;-57
2022/01/02 07:18:14;;;;;;;10.63;10.32;;;3.90;99.90;;;;;;4158544;28;20041;-57
2022/01/02 07:20:16;;;;;;;9.00;8.70;;;3.80;99.90;;;;;;4158479;28;20463;-57
2022/01/02 07:22:18;;;;;;;9.15;8.85;;;3.90;99.90;;;;;;4161315;28;20564;-56
2022/01/02 07:24:20;;;;;;;9.27;8.77;;;3.80;99.90;;;;;;4158670;28;20045;-57
2022/01/02 07:26:22;;;;;;;9.52;9.32;;;3.80;99.90;;;;;;4153775;28;20593;-56
2022/01/02 07:28:24;;;;;;;9.35;9.15;;;3.80;99.90;;;;;;4159221;28;20050;-57
2022/01/02 07:30:26;;;;;;;9.32;8.95;;;3.80;99.90;;;;;;4158625;28;20076;-58
2022/01/02 07:32:28;;;;;;;8.98;8.57;;;3.90;99.90;;;;;;4157503;28;20061;-56
2022/01/02 07:34:30;;;;;;;9.10;8.57;;;3.90;99.90;;;;;;4161639;28;20037;-57
2022/01/02 07:36:32;;;;;;;12.18;11.63;;;4.00;99.90;;;;;;4158693;28;20055;-57
2022/01/02 07:38:39;;;;;;;11.02;10.63;;;4.00;99.90;;;;;;4147740;28;20125;-57
2022/01/02 07:40:41;;;;;;;12.07;11.48;;;4.00;99.90;;;;;;4159176;28;20045;-57
2022/01/02 07:42:43;;;;;;;11.05;10.63;;;4.00;99.90;;;;;;4161269;28;20080;-57
2022/01/02 07:44:45;;;;;;;10.50;9.98;;;4.00;99.90;;;;;;4160449;28;20076;-57
2022/01/02 07:46:47;;;;;;;11.05;10.75;;;4.00;99.90;;;;;;4160591;28;20030;-57
2022/01/02 07:48:51;;;;;;;12.70;12.18;;;4.00;99.90;;;;;;4158753;28;20120;-57
2022/01/02 07:50:53;;;;;;;11.00;10.60;;;4.00;99.90;;;;;;4161202;28;20038;-57
2022/01/02 07:52:55;;;;;;;12.20;11.70;;;4.00;99.90;;;;;;4160568;28;20045;-58
2022/01/02 07:54:58;;;;;;;9.30;9.00;;;4.10;99.90;;;;;;4149655;28;20041;-57
2022/01/02 07:57:00;;;;;;;12.52;11.98;;;4.10;99.90;;;;;;4159794;28;20128;-57
2022/01/02 07:59:02;;;;;;;9.32;9.02;;;4.00;99.90;;;;;;4160099;28;20038;-57
2022/01/02 08:01:04;;;;;;;12.90;12.55;;;4.10;99.90;;;;;;4160954;28;20570;-57
2022/01/02 08:03:06;;;;;;;12.80;12.45;;;4.10;99.90;;;;;;4160044;28;20469;-57
2022/01/02 08:05:14;;;;;;;14.00;13.50;;;4.10;99.90;;;;;;4160045;28;20043;-57
2022/01/02 08:07:16;;;;;;;14.02;13.45;;;4.10;99.90;;;;;;4161749;28;20536;-57
2022/01/02 08:09:18;;;;;;;8.82;8.55;;;4.10;99.90;;;;;;4160373;28;20092;-57
2022/01/02 08:11:20;;;;;;;13.68;13.00;;;4.10;99.90;;;;;;4155921;28;20058;-56
2022/01/02 08:13:44;;;;;;;15.32;14.65;;;4.20;99.90;;;;;;4162464;28;20033;-58
2022/01/02 08:15:48;;;;;;;15.13;14.52;;;4.20;99.90;;;;;;4161070;28;20065;-57
2022/01/02 08:17:50;;;;;;;11.70;10.95;;;4.30;99.90;;;;;;4162669;28;20210;-58
2022/01/02 08:19:52;;;;;;;13.30;12.77;;;4.20;99.90;;;;;;4160993;28;20037;-57
2022/01/02 08:21:54;;;;;;;15.98;15.52;;;4.30;99.90;;;;;;4163247;28;20073;-56
2022/01/02 08:23:57;;;;;;;17.92;16.92;;;4.30;99.90;;;;;;4160691;28;20037;-58
2022/01/02 08:26:00;;;;;;;15.90;15.38;;;4.30;99.90;;;;;;4163156;28;20045;-57
2022/01/02 08:28:02;;;;;;;15.57;15.02;;;4.40;99.90;;;;;;4160942;28;20045;-57
2022/01/02 08:30:04;;;;;;;16.83;16.05;;;4.40;99.90;;;;;;4163040;28;20132;-56
2022/01/02 08:32:06;;;;;;;;;;;4.40;99.90;;;;;;4162172;28;20037;-57
2022/01/02 08:34:08;;;;;;;12.23;11.77;;;4.40;99.90;;;;;;4159585;28;20419;-57
2022/01/02 08:36:10;;;;;;;17.20;16.30;;;4.40;99.90;;;;;;4157578;28;20044;-57
2022/01/02 08:38:12;;;;;;;12.10;11.55;;;4.40;99.90;;;;;;4164188;28;20045;-57
2022/01/02 08:40:14;;;;;;;16.58;14.73;;;4.50;99.90;;;;;;4160974;28;20557;-57
2022/01/02 08:42:17;;;;;;;16.45;15.30;;;4.50;99.90;;;;;;4163450;28;20072;-57
2022/01/02 08:44:20;;;;;;;18.05;16.42;;;4.60;99.90;;;;;;4154929;28;20422;-56
2022/01/02 08:46:23;;;;;;;22.42;20.17;;;4.60;99.90;;;;;;4164139;28;20060;-56
2022/01/02 08:48:25;;;;;;;18.15;16.30;;;4.60;99.90;;;;;;4161721;28;20069;-57
2022/01/02 08:50:27;;;;;;;16.77;15.68;;;4.60;99.90;;;;;;4162307;28;20604;-57
2022/01/02 08:52:29;;;;;;;15.88;14.82;;;4.70;99.90;;;;;;4160522;28;20037;-57
2022/01/02 08:54:31;;;;;;;14.57;13.70;;;4.70;99.90;;;;;;4156002;28;20041;-57
2022/01/02 08:56:33;;;;;;;15.13;14.02;;;4.80;99.90;;;;;;4160952;28;20038;-57
2022/01/02 08:58:35;;;;;;;16.17;14.68;;;4.90;99.90;;;;;;4162298;28;20069;-56
2022/01/02 09:00:37;;;;;;;14.05;13.13;;;4.90;99.90;;;;;;4160598;28;20095;-57
2022/01/02 09:02:40;;;;;;;13.70;12.90;;;4.90;99.90;;;;;;4164093;28;20128;-57
2022/01/02 09:04:42;;;;;;;15.00;14.00;;;5.00;99.90;;;;;;4159394;28;20041;-56
2022/01/02 09:06:44;;;;;;;15.25;14.15;;;5.00;99.90;;;;;;4161302;28;20132;-57
2022/01/02 09:08:46;;;;;;;14.73;13.50;;;5.10;99.90;;;;;;4155474;28;20065;-57
2022/01/02 09:10:48;;;;;;;18.45;13.90;;;5.00;99.90;;;;;;4163813;28;20057;-57
2022/01/02 09:12:50;;;;;;;15.82;14.70;;;5.10;99.90;;;;;;4161015;28;20056;-56
2022/01/02 09:14:52;;;;;;;14.75;13.65;;;5.10;99.90;;;;;;4160955;28;20505;-56
2022/01/02 09:16:54;;;;;;;15.27;14.07;;;5.20;99.90;;;;;;4160166;28;20498;-57
2022/01/02 09:18:56;;;;;;;12.43;11.77;;;5.20;99.90;;;;;;4160648;28;20064;-57
2022/01/02 09:20:58;;;;;;;14.35;13.40;;;5.20;99.90;;;;;;4157994;28;20040;-57
2022/01/02 09:23:00;;;;;;;13.13;12.00;;;5.20;99.90;;;;;;4163576;28;20045;-57
2022/01/02 09:25:03;;;;;;;12.60;11.93;;;5.20;99.90;;;;;;4159797;28;20097;-57
2022/01/02 09:27:05;;;;;;;13.98;13.02;;;5.30;99.90;;;;;;4163515;28;20049;-57
2022/01/02 09:29:08;;;;;;;14.57;13.68;;;5.30;99.90;;;;;;4159897;28;20037;-56
2022/01/02 09:31:10;;;;;;;14.38;13.52;;;5.40;99.90;;;;;;4159792;28;20073;-57
2022/01/02 09:33:12;;;;;;;17.50;16.23;;;5.50;99.90;;;;;;4157661;28;20079;-57
2022/01/02 09:35:14;;;;;;;17.83;16.65;;;5.50;99.90;;;;;;4152866;28;20053;-56
2022/01/02 09:37:16;;;;;;;15.25;13.98;;;5.50;99.90;;;;;;4154275;28;20489;-56
2022/01/02 09:39:18;;;;;;;15.68;14.60;;;5.60;99.90;;;;;;4161891;28;20072;-57
2022/01/02 09:41:21;;;;;;;14.68;13.77;;;5.60;99.90;;;;;;4159410;28;20073;-57
2022/01/02 09:43:24;;;;;;;16.38;15.18;;;5.70;99.90;;;;;;4163127;28;20057;-57
2022/01/02 09:45:27;;;;;;;11.88;11.45;;;5.90;99.90;;;;;;4156951;28;20442;-56
2022/01/02 09:47:31;;;;;;;15.07;14.18;;;6.20;99.90;;;;;;4159817;28;20124;-56
2022/01/02 09:49:37;;;;;;;15.63;14.30;;;6.10;99.90;;;;;;4155517;28;20117;-57
2022/01/02 09:51:39;;;;;;;18.50;16.92;;;6.10;99.90;;;;;;4149037;28;20042;-57
2022/01/02 09:53:42;;;;;;;16.52;15.43;;;6.30;99.90;;;;;;4155148;28;20029;-56
2022/01/02 09:55:44;;;;;;;14.85;13.93;;;6.30;99.90;;;;;;4162103;28;20456;-57
2022/01/02 09:57:48;;;;;;;18.15;16.95;;;6.30;99.90;;;;;;4161152;28;20049;-56
2022/01/02 09:59:50;;;;;;;15.38;14.35;;;6.40;99.90;;;;;;4162272;28;20537;-56
2022/01/02 10:01:53;;;;;;;19.27;17.50;;;6.30;99.90;;;;;;4159664;28;20040;-56
2022/01/02 10:03:57;;;;;;;19.88;18.35;;;6.40;99.90;;;;;;4152736;28;20152;-57
2022/01/02 10:05:59;;;;;;;23.15;21.15;;;6.30;99.90;;;;;;4159118;28;20068;-57
2022/01/02 10:08:19;;;;;;;26.88;24.38;;;6.40;99.90;;;;;;4161339;28;20477;-56
2022/01/02 10:10:30;;;;;;;28.73;25.67;;;6.50;99.90;;;;;;4157888;28;20122;-57
2022/01/02 10:12:33;;;;;;;24.27;22.15;;;6.60;99.90;;;;;;4161680;28;20040;-56
2022/01/02 10:14:35;;;;;;;23.20;21.00;;;6.60;99.90;;;;;;4160164;28;20056;-57
2022/01/02 10:16:40;;;;;;;25.05;23.02;;;6.70;99.90;;;;;;4160487;28;20041;-57
2022/01/02 10:18:42;;;;;;;20.73;18.83;;;6.80;99.90;;;;;;4158472;28;20095;-56
2022/01/02 10:20:48;;;;;;;19.27;17.67;;;6.90;99.90;;;;;;4160665;28;20081;-56
2022/01/02 10:23:11;;;;;;;31.98;28.67;;;6.90;99.90;;;;;;4161488;28;20064;-57
2022/01/02 10:25:33;;;;;;;29.33;26.50;;;7.00;99.90;;;;;;4159138;28;20115;-56
2022/01/02 10:27:35;;;;;;;12.85;12.13;;;7.10;99.90;;;;;;4162418;28;20045;-57
2022/01/02 10:29:58;;;;;;;11.73;11.13;;;7.10;99.90;;;;;;4159660;28;20068;-57
2022/01/02 10:32:00;;;;;;;;;;;7.20;99.90;;;;;;4161650;28;20071;-56
2022/01/02 10:34:02;;;;;;;10.10;9.40;;;7.30;99.90;;;;;;4159517;28;20016;-56
2022/01/02 10:36:04;;;;;;;9.55;9.15;;;7.50;99.90;;;;;;4161376;28;20069;-57
2022/01/02 10:38:17;;;;;;;8.93;8.63;;;7.50;99.90;;;;;;4156688;28;20583;-57
2022/01/02 10:40:34;;;;;;;9.32;8.88;;;7.40;99.90;;;;;;4161061;28;20033;-57
2022/01/02 10:42:44;;;;;;;9.23;8.60;;;7.50;99.90;;;;;;4159411;28;20401;-58
2022/01/02 10:44:46;;;;;;;8.57;8.18;;;7.60;99.90;;;;;;4151593;28;20083;-56
2022/01/02 10:47:14;;;;;;;11.77;11.00;;;7.80;99.90;;;;;;4159432;28;20104;-57